»·PEaware :: N89455 KSAN-KLAX

N89455 :: KSAN-KLAX

FLIGHT INFORMATION

Flight Status: Arrived
Operator: Privately registered:
United States
More flights under this callsign
Pilot: Dretana A. (25430)
Aircraft: CESSNA 206 STATIONAIR
(C206)
More flights by this aircraft type
Origin: KSAN San Diego Intl-Lindbergh
United States
Destination: KLAX Los Angeles Intl
United States
More flights between these airports :: More routes between these airports
Route: OCN V23 SLI
File this flight plan on PilotEdge
Remarks:
Altitude:
(Current/Filed)
6,000ft
Speed:
(Current/Filed)
120kts
Departed: 11-Nov-19 05:58 PM
Arrived: 11-Nov-19 06:52 PM
Distance/Time
Traveled:
94nm/0:54
Distance/Time
To Go:
Arrived

Flight Plot

Page will automatically refresh every two minutes.


Map Options




Map Legend


Flown Route
Filed Route
Departure Airport
Arrival Airport
Navaid (VOR, NDB)
Fix

Horizontal Profiles

Position Reports

Time Latitude Longitude Heading Altitude Ground
Speed
11-Nov-19 17:43 32.733328 -117.181497 16 18ft 0kts
11-Nov-19 17:44 32.733328 -117.181497 16 18ft 0kts
11-Nov-19 17:45 32.733328 -117.181497 16 18ft 0kts
11-Nov-19 17:46 32.733328 -117.181497 16 18ft 0kts
11-Nov-19 17:47 32.733328 -117.181497 16 18ft 0kts
11-Nov-19 17:48 32.733328 -117.181497 16 18ft 0kts
11-Nov-19 17:49 32.733328 -117.181497 16 18ft 0kts
11-Nov-19 17:50 32.733328 -117.181497 16 18ft 0kts
11-Nov-19 17:51 32.733328 -117.181497 16 18ft 0kts
11-Nov-19 17:52 32.733328 -117.181497 16 18ft 0kts
11-Nov-19 17:53 32.733329 -117.181497 18 19ft 0kts
11-Nov-19 17:54 32.732284 -117.180660 105 19ft 12kts
11-Nov-19 17:55 32.730960 -117.175216 132 19ft 8kts
11-Nov-19 17:56 32.730668 -117.175124 191 18ft 0kts
11-Nov-19 17:57 32.732435 -117.185167 280 113ft 86kts
11-Nov-19 17:58 32.734312 -117.212538 310 1124ft 99kts
11-Nov-19 17:59 32.757034 -117.236197 325 1648ft 117kts
11-Nov-19 18:00 32.782761 -117.257054 319 2103ft 111kts
11-Nov-19 18:02 32.807207 -117.279784 326 2594ft 108kts
11-Nov-19 18:03 32.831295 -117.301361 322 3127ft 105kts
11-Nov-19 18:04 32.854126 -117.322662 322 3690ft 103kts
11-Nov-19 18:05 32.877069 -117.343414 323 4377ft 106kts
11-Nov-19 18:06 32.900318 -117.366972 317 4908ft 102kts
11-Nov-19 18:07 32.924216 -117.385272 335 5437ft 97kts
11-Nov-19 18:08 32.953254 -117.384727 1 5841ft 110kts
11-Nov-19 18:09 32.985115 -117.377281 342 6076ft 119kts
11-Nov-19 18:10 33.020405 -117.384770 344 5919ft 131kts
11-Nov-19 18:11 33.055504 -117.392448 341 5994ft 124kts
11-Nov-19 18:12 33.090435 -117.398487 350 5981ft 133kts
11-Nov-19 18:13 33.126947 -117.401140 352 5966ft 133kts
11-Nov-19 18:14 33.163685 -117.400288 348 6029ft 125kts
11-Nov-19 18:15 33.198235 -117.410833 332 5976ft 124kts
11-Nov-19 18:16 33.230825 -117.424975 354 6000ft 128kts
11-Nov-19 18:17 33.263320 -117.437956 318 5898ft 129kts
11-Nov-19 18:18 33.288837 -117.464967 311 5965ft 122kts
11-Nov-19 18:19 33.312408 -117.493223 309 6046ft 121kts
11-Nov-19 18:20 33.335942 -117.523094 308 6020ft 121kts
11-Nov-19 18:20 33.355185 -117.549735 311 5839ft 127kts
11-Nov-19 18:22 33.386700 -117.578101 320 5913ft 127kts
11-Nov-19 18:23 33.410390 -117.607391 306 5958ft 120kts
11-Nov-19 18:23 33.426516 -117.634809 300 5973ft 121kts
11-Nov-19 18:25 33.453973 -117.668652 314 5926ft 128kts
11-Nov-19 18:25 33.476274 -117.691544 317 5827ft 129kts
11-Nov-19 18:26 33.501226 -117.718834 306 5955ft 120kts
11-Nov-19 18:28 33.528292 -117.752637 312 5976ft 125kts
11-Nov-19 18:28 33.549970 -117.776426 315 5840ft 128kts
11-Nov-19 18:29 33.572846 -117.805895 308 6006ft 118kts
11-Nov-19 18:30 33.596503 -117.834899 315 5973ft 124kts
11-Nov-19 18:31 33.622400 -117.862212 307 5957ft 123kts
11-Nov-19 18:32 33.643552 -117.894309 303 5941ft 124kts
11-Nov-19 18:33 33.667646 -117.924354 317 5942ft 125kts
11-Nov-19 18:34 33.695227 -117.949918 317 6007ft 123kts
11-Nov-19 18:35 33.721778 -117.978140 309 5883ft 130kts
11-Nov-19 18:36 33.743962 -118.010902 304 5894ft 125kts
11-Nov-19 18:37 33.768957 -118.039506 316 5888ft 132kts
11-Nov-19 18:38 33.795108 -118.067591 310 6013ft 124kts
11-Nov-19 18:39 33.820287 -118.097600 312 5975ft 123kts
11-Nov-19 18:40 33.845176 -118.126967 308 5987ft 123kts
11-Nov-19 18:41 33.874714 -118.149938 349 5809ft 136kts
11-Nov-19 18:42 33.914038 -118.144602 358 5260ft 146kts
11-Nov-19 18:43 33.955672 -118.148174 342 4293ft 151kts
11-Nov-19 18:44 33.963064 -118.188800 243 3153ft 133kts
11-Nov-19 18:45 33.953433 -118.227819 256 2706ft 106kts
11-Nov-19 18:46 33.949945 -118.261088 263 2501ft 95kts
11-Nov-19 18:47 33.946420 -118.291041 261 2332ft 92kts
11-Nov-19 18:48 33.943443 -118.325404 262 1585ft 110kts
11-Nov-19 18:49 33.940010 -118.359137 265 587ft 91kts
11-Nov-19 18:50 33.937262 -118.385815 263 134ft 69kts
11-Nov-19 18:51 33.935889 -118.393702 177 130ft 5kts

Navigation Log

Ident Type
Flight plan parsing failed, navigation log unavailable